sensor_id;sensor_type;location;lat;lon;timestamp;P1;durP1;ratioP1;P2;durP2;ratioP2
61391;SDS011;47261;52.892;5.738;2023-08-17T00:02:23;19.13;;;3.77;;
61391;SDS011;47261;52.892;5.738;2023-08-17T00:04:49;11.65;;;3.50;;
61391;SDS011;47261;52.892;5.738;2023-08-17T00:07:15;8.40;;;3.47;;
61391;SDS011;47261;52.892;5.738;2023-08-17T00:09:40;13.10;;;3.70;;
61391;SDS011;47261;52.892;5.738;2023-08-17T00:12:07;7.63;;;3.42;;
61391;SDS011;47261;52.892;5.738;2023-08-17T00:14:32;9.80;;;3.67;;
61391;SDS011;47261;52.892;5.738;2023-08-17T00:16:58;11.70;;;3.47;;
61391;SDS011;47261;52.892;5.738;2023-08-17T00:19:24;9.82;;;3.58;;
61391;SDS011;47261;52.892;5.738;2023-08-17T00:21:50;8.43;;;3.83;;
61391;SDS011;47261;52.892;5.738;2023-08-17T00:24:17;8.68;;;3.63;;
61391;SDS011;47261;52.892;5.738;2023-08-17T00:26:43;12.75;;;3.90;;
61391;SDS011;47261;52.892;5.738;2023-08-17T00:29:08;8.90;;;3.53;;
61391;SDS011;47261;52.892;5.738;2023-08-17T00:31:34;11.77;;;3.80;;
61391;SDS011;47261;52.892;5.738;2023-08-17T00:34:00;11.43;;;4.27;;
61391;SDS011;47261;52.892;5.738;2023-08-17T00:36:25;10.47;;;3.70;;
61391;SDS011;47261;52.892;5.738;2023-08-17T00:38:51;12.82;;;4.13;;
61391;SDS011;47261;52.892;5.738;2023-08-17T00:41:17;12.67;;;4.03;;
61391;SDS011;47261;52.892;5.738;2023-08-17T00:43:42;14.90;;;4.45;;
61391;SDS011;47261;52.892;5.738;2023-08-17T00:46:08;9.90;;;3.93;;
61391;SDS011;47261;52.892;5.738;2023-08-17T00:48:34;12.00;;;4.20;;
61391;SDS011;47261;52.892;5.738;2023-08-17T00:51:00;11.30;;;3.80;;
61391;SDS011;47261;52.892;5.738;2023-08-17T00:53:27;9.43;;;3.88;;
61391;SDS011;47261;52.892;5.738;2023-08-17T00:55:56;13.15;;;4.10;;
61391;SDS011;47261;52.892;5.738;2023-08-17T00:58:22;10.95;;;3.72;;
61391;SDS011;47261;52.892;5.738;2023-08-17T01:00:48;9.00;;;4.10;;
61391;SDS011;47261;52.892;5.738;2023-08-17T01:03:14;10.80;;;3.97;;
61391;SDS011;47261;52.892;5.738;2023-08-17T01:05:41;11.80;;;3.97;;
61391;SDS011;47261;52.892;5.738;2023-08-17T01:08:07;15.00;;;4.17;;
61391;SDS011;47261;52.892;5.738;2023-08-17T01:11:08;10.93;;;4.25;;
61391;SDS011;47261;52.892;5.738;2023-08-17T01:13:33;10.35;;;4.60;;
61391;SDS011;47261;52.892;5.738;2023-08-17T01:16:11;11.02;;;4.55;;
61391;SDS011;47261;52.892;5.738;2023-08-17T01:18:40;12.30;;;4.63;;
61391;SDS011;47261;52.892;5.738;2023-08-17T01:21:08;10.93;;;4.55;;
61391;SDS011;47261;52.892;5.738;2023-08-17T01:23:37;8.70;;;4.07;;
61391;SDS011;47261;52.892;5.738;2023-08-17T01:26:02;10.43;;;4.43;;
61391;SDS011;47261;52.892;5.738;2023-08-17T01:28:28;9.90;;;4.47;;
61391;SDS011;47261;52.892;5.738;2023-08-17T01:33:24;11.67;;;4.33;;
61391;SDS011;47261;52.892;5.738;2023-08-17T01:36:11;13.38;;;4.70;;
61391;SDS011;47261;52.892;5.738;2023-08-17T01:38:43;10.45;;;4.72;;
61391;SDS011;47261;52.892;5.738;2023-08-17T01:41:10;14.43;;;4.70;;
61391;SDS011;47261;52.892;5.738;2023-08-17T01:43:41;13.90;;;4.95;;
61391;SDS011;47261;52.892;5.738;2023-08-17T01:46:12;11.70;;;4.80;;
61391;SDS011;47261;52.892;5.738;2023-08-17T01:48:44;10.48;;;4.97;;
61391;SDS011;47261;52.892;5.738;2023-08-17T01:51:11;12.23;;;5.63;;
61391;SDS011;47261;52.892;5.738;2023-08-17T01:53:40;11.45;;;4.97;;
61391;SDS011;47261;52.892;5.738;2023-08-17T01:56:06;12.33;;;5.30;;
61391;SDS011;47261;52.892;5.738;2023-08-17T01:58:32;11.85;;;5.20;;
61391;SDS011;47261;52.892;5.738;2023-08-17T02:00:57;10.50;;;4.63;;
61391;SDS011;47261;52.892;5.738;2023-08-17T02:03:23;10.18;;;5.18;;
61391;SDS011;47261;52.892;5.738;2023-08-17T02:05:49;13.27;;;4.73;;
61391;SDS011;47261;52.892;5.738;2023-08-17T02:08:14;9.13;;;4.93;;
61391;SDS011;47261;52.892;5.738;2023-08-17T02:10:40;12.18;;;4.93;;
61391;SDS011;47261;52.892;5.738;2023-08-17T02:13:05;12.90;;;5.10;;
61391;SDS011;47261;52.892;5.738;2023-08-17T02:15:31;8.52;;;4.68;;
61391;SDS011;47261;52.892;5.738;2023-08-17T02:17:59;12.90;;;4.93;;
61391;SDS011;47261;52.892;5.738;2023-08-17T02:20:25;11.60;;;4.78;;
61391;SDS011;47261;52.892;5.738;2023-08-17T02:22:51;11.37;;;5.00;;
61391;SDS011;47261;52.892;5.738;2023-08-17T02:25:17;13.18;;;5.13;;
61391;SDS011;47261;52.892;5.738;2023-08-17T02:27:42;15.10;;;5.47;;
61391;SDS011;47261;52.892;5.738;2023-08-17T02:30:08;13.40;;;4.65;;
61391;SDS011;47261;52.892;5.738;2023-08-17T02:32:34;11.93;;;5.03;;
61391;SDS011;47261;52.892;5.738;2023-08-17T02:35:00;12.23;;;4.88;;
61391;SDS011;47261;52.892;5.738;2023-08-17T02:37:26;12.93;;;5.00;;
61391;SDS011;47261;52.892;5.738;2023-08-17T02:39:51;12.43;;;5.03;;
61391;SDS011;47261;52.892;5.738;2023-08-17T02:42:17;15.33;;;5.00;;
61391;SDS011;47261;52.892;5.738;2023-08-17T02:44:42;14.07;;;5.18;;
61391;SDS011;47261;52.892;5.738;2023-08-17T02:47:08;16.07;;;5.00;;
61391;SDS011;47261;52.892;5.738;2023-08-17T02:49:34;12.18;;;4.93;;
61391;SDS011;47261;52.892;5.738;2023-08-17T02:52:00;17.77;;;5.20;;
61391;SDS011;47261;52.892;5.738;2023-08-17T02:54:26;11.18;;;4.75;;
61391;SDS011;47261;52.892;5.738;2023-08-17T02:56:51;13.77;;;4.70;;
61391;SDS011;47261;52.892;5.738;2023-08-17T02:59:17;11.93;;;4.88;;
61391;SDS011;47261;52.892;5.738;2023-08-17T03:01:43;12.73;;;5.27;;
61391;SDS011;47261;52.892;5.738;2023-08-17T03:04:10;16.00;;;5.55;;
61391;SDS011;47261;52.892;5.738;2023-08-17T03:06:36;11.95;;;4.78;;
61391;SDS011;47261;52.892;5.738;2023-08-17T03:09:01;11.67;;;5.13;;
61391;SDS011;47261;52.892;5.738;2023-08-17T03:11:27;12.80;;;5.15;;
61391;SDS011;47261;52.892;5.738;2023-08-17T03:13:53;11.77;;;5.00;;
61391;SDS011;47261;52.892;5.738;2023-08-17T03:16:25;10.88;;;4.95;;
61391;SDS011;47261;52.892;5.738;2023-08-17T03:18:51;13.10;;;5.43;;
61391;SDS011;47261;52.892;5.738;2023-08-17T03:21:17;15.97;;;5.40;;
61391;SDS011;47261;52.892;5.738;2023-08-17T03:23:43;12.95;;;5.00;;
61391;SDS011;47261;52.892;5.738;2023-08-17T03:26:09;12.17;;;5.00;;
61391;SDS011;47261;52.892;5.738;2023-08-17T03:28:35;12.85;;;4.93;;
61391;SDS011;47261;52.892;5.738;2023-08-17T03:31:01;9.90;;;4.73;;
61391;SDS011;47261;52.892;5.738;2023-08-17T03:33:28;10.48;;;4.60;;
61391;SDS011;47261;52.892;5.738;2023-08-17T03:35:53;18.80;;;4.80;;
61391;SDS011;47261;52.892;5.738;2023-08-17T03:38:19;14.70;;;5.23;;
61391;SDS011;47261;52.892;5.738;2023-08-17T03:40:45;11.30;;;4.90;;
61391;SDS011;47261;52.892;5.738;2023-08-17T03:43:11;16.60;;;5.03;;
61391;SDS011;47261;52.892;5.738;2023-08-17T03:45:37;16.58;;;4.80;;
61391;SDS011;47261;52.892;5.738;2023-08-17T03:48:03;16.03;;;5.20;;
61391;SDS011;47261;52.892;5.738;2023-08-17T03:50:29;16.08;;;4.65;;
61391;SDS011;47261;52.892;5.738;2023-08-17T03:52:55;15.47;;;5.37;;
61391;SDS011;47261;52.892;5.738;2023-08-17T03:55:20;13.03;;;5.13;;
61391;SDS011;47261;52.892;5.738;2023-08-17T03:57:46;15.50;;;5.50;;
61391;SDS011;47261;52.892;5.738;2023-08-17T04:00:12;13.80;;;5.38;;
61391;SDS011;47261;52.892;5.738;2023-08-17T04:02:37;12.27;;;5.18;;
61391;SDS011;47261;52.892;5.738;2023-08-17T04:05:03;15.60;;;5.20;;
61391;SDS011;47261;52.892;5.738;2023-08-17T04:07:29;9.40;;;4.40;;
61391;SDS011;47261;52.892;5.738;2023-08-17T04:09:55;11.53;;;5.27;;
61391;SDS011;47261;52.892;5.738;2023-08-17T04:12:20;11.95;;;5.53;;
61391;SDS011;47261;52.892;5.738;2023-08-17T04:14:46;17.97;;;5.93;;
61391;SDS011;47261;52.892;5.738;2023-08-17T04:17:12;16.70;;;5.55;;
61391;SDS011;47261;52.892;5.738;2023-08-17T04:19:37;14.67;;;5.30;;
61391;SDS011;47261;52.892;5.738;2023-08-17T04:22:03;10.65;;;5.07;;
61391;SDS011;47261;52.892;5.738;2023-08-17T04:24:29;17.27;;;5.30;;
61391;SDS011;47261;52.892;5.738;2023-08-17T04:26:55;13.75;;;5.10;;
61391;SDS011;47261;52.892;5.738;2023-08-17T04:29:20;11.63;;;5.23;;
61391;SDS011;47261;52.892;5.738;2023-08-17T04:31:46;14.05;;;5.30;;
61391;SDS011;47261;52.892;5.738;2023-08-17T04:34:11;12.63;;;5.20;;
61391;SDS011;47261;52.892;5.738;2023-08-17T04:36:37;14.73;;;5.40;;
61391;SDS011;47261;52.892;5.738;2023-08-17T04:39:03;12.73;;;4.90;;
61391;SDS011;47261;52.892;5.738;2023-08-17T04:41:29;13.15;;;5.05;;
61391;SDS011;47261;52.892;5.738;2023-08-17T04:43:55;12.60;;;4.87;;
61391;SDS011;47261;52.892;5.738;2023-08-17T04:46:21;15.10;;;5.30;;
61391;SDS011;47261;52.892;5.738;2023-08-17T04:48:46;15.47;;;5.70;;
61391;SDS011;47261;52.892;5.738;2023-08-17T04:51:12;14.57;;;5.65;;
61391;SDS011;47261;52.892;5.738;2023-08-17T04:53:39;14.90;;;5.18;;
61391;SDS011;47261;52.892;5.738;2023-08-17T04:56:05;15.13;;;6.23;;
61391;SDS011;47261;52.892;5.738;2023-08-17T04:58:31;12.63;;;5.15;;
61391;SDS011;47261;52.892;5.738;2023-08-17T05:00:57;14.93;;;5.50;;
61391;SDS011;47261;52.892;5.738;2023-08-17T05:03:24;13.50;;;5.03;;
61391;SDS011;47261;52.892;5.738;2023-08-17T05:05:51;12.20;;;4.32;;
61391;SDS011;47261;52.892;5.738;2023-08-17T05:08:17;11.52;;;4.63;;
61391;SDS011;47261;52.892;5.738;2023-08-17T05:10:43;13.70;;;4.33;;
61391;SDS011;47261;52.892;5.738;2023-08-17T05:13:08;13.07;;;4.07;;
61391;SDS011;47261;52.892;5.738;2023-08-17T05:15:34;13.48;;;4.63;;
61391;SDS011;47261;52.892;5.738;2023-08-17T05:17:59;11.73;;;4.57;;
61391;SDS011;47261;52.892;5.738;2023-08-17T05:20:25;10.15;;;3.97;;
61391;SDS011;47261;52.892;5.738;2023-08-17T05:22:51;11.30;;;4.50;;
61391;SDS011;47261;52.892;5.738;2023-08-17T05:25:16;11.30;;;3.87;;
61391;SDS011;47261;52.892;5.738;2023-08-17T05:27:42;10.47;;;3.57;;
61391;SDS011;47261;52.892;5.738;2023-08-17T05:30:08;8.30;;;3.83;;
61391;SDS011;47261;52.892;5.738;2023-08-17T05:32:34;9.18;;;3.33;;
61391;SDS011;47261;52.892;5.738;2023-08-17T05:34:59;9.48;;;3.40;;
61391;SDS011;47261;52.892;5.738;2023-08-17T05:37:25;9.03;;;3.57;;
61391;SDS011;47261;52.892;5.738;2023-08-17T05:39:51;10.33;;;3.23;;
61391;SDS011;47261;52.892;5.738;2023-08-17T05:42:16;12.20;;;3.70;;
61391;SDS011;47261;52.892;5.738;2023-08-17T05:44:42;10.43;;;3.33;;
61391;SDS011;47261;52.892;5.738;2023-08-17T05:47:07;6.05;;;2.95;;
61391;SDS011;47261;52.892;5.738;2023-08-17T05:49:33;7.63;;;3.03;;
61391;SDS011;47261;52.892;5.738;2023-08-17T05:51:59;9.65;;;3.03;;
61391;SDS011;47261;52.892;5.738;2023-08-17T05:54:24;9.37;;;3.20;;
61391;SDS011;47261;52.892;5.738;2023-08-17T05:56:50;11.13;;;2.97;;
61391;SDS011;47261;52.892;5.738;2023-08-17T05:59:15;8.10;;;2.83;;
61391;SDS011;47261;52.892;5.738;2023-08-17T06:01:41;12.43;;;3.00;;
61391;SDS011;47261;52.892;5.738;2023-08-17T06:04:07;8.02;;;2.80;;
61391;SDS011;47261;52.892;5.738;2023-08-17T06:06:32;11.23;;;3.07;;
61391;SDS011;47261;52.892;5.738;2023-08-17T06:08:59;11.70;;;2.70;;
61391;SDS011;47261;52.892;5.738;2023-08-17T06:11:24;10.55;;;2.90;;
61391;SDS011;47261;52.892;5.738;2023-08-17T06:13:50;8.03;;;1.97;;
61391;SDS011;47261;52.892;5.738;2023-08-17T06:16:15;9.47;;;2.10;;
61391;SDS011;47261;52.892;5.738;2023-08-17T06:18:41;6.50;;;2.30;;
61391;SDS011;47261;52.892;5.738;2023-08-17T06:21:07;8.57;;;2.00;;
61391;SDS011;47261;52.892;5.738;2023-08-17T06:23:33;5.20;;;1.80;;
61391;SDS011;47261;52.892;5.738;2023-08-17T06:25:59;7.53;;;1.83;;
61391;SDS011;47261;52.892;5.738;2023-08-17T06:28:25;7.32;;;2.47;;
61391;SDS011;47261;52.892;5.738;2023-08-17T06:30:52;5.87;;;2.07;;
61391;SDS011;47261;52.892;5.738;2023-08-17T06:33:19;7.60;;;1.98;;
61391;SDS011;47261;52.892;5.738;2023-08-17T06:35:45;10.73;;;2.25;;
61391;SDS011;47261;52.892;5.738;2023-08-17T06:38:10;8.20;;;1.90;;
61391;SDS011;47261;52.892;5.738;2023-08-17T06:40:37;8.32;;;2.10;;
61391;SDS011;47261;52.892;5.738;2023-08-17T06:43:03;9.85;;;1.75;;
61391;SDS011;47261;52.892;5.738;2023-08-17T06:45:31;7.10;;;1.52;;
61391;SDS011;47261;52.892;5.738;2023-08-17T06:47:57;7.40;;;1.80;;
61391;SDS011;47261;52.892;5.738;2023-08-17T06:50:23;6.43;;;1.77;;
61391;SDS011;47261;52.892;5.738;2023-08-17T06:52:50;9.57;;;1.90;;
61391;SDS011;47261;52.892;5.738;2023-08-17T06:55:15;7.72;;;1.60;;
61391;SDS011;47261;52.892;5.738;2023-08-17T06:57:42;6.80;;;1.45;;
61391;SDS011;47261;52.892;5.738;2023-08-17T07:00:08;6.73;;;1.20;;
61391;SDS011;47261;52.892;5.738;2023-08-17T07:02:36;8.88;;;1.60;;
61391;SDS011;47261;52.892;5.738;2023-08-17T07:05:01;5.27;;;1.43;;
61391;SDS011;47261;52.892;5.738;2023-08-17T07:07:28;6.38;;;1.27;;
61391;SDS011;47261;52.892;5.738;2023-08-17T07:09:56;9.48;;;1.70;;
61391;SDS011;47261;52.892;5.738;2023-08-17T07:12:22;5.47;;;1.55;;
61391;SDS011;47261;52.892;5.738;2023-08-17T07:14:49;5.53;;;1.33;;
61391;SDS011;47261;52.892;5.738;2023-08-17T07:17:15;3.63;;;1.37;;
61391;SDS011;47261;52.892;5.738;2023-08-17T07:19:41;5.05;;;1.38;;
61391;SDS011;47261;52.892;5.738;2023-08-17T07:22:07;8.33;;;1.40;;
61391;SDS011;47261;52.892;5.738;2023-08-17T07:24:32;7.60;;;1.83;;
61391;SDS011;47261;52.892;5.738;2023-08-17T07:26:58;4.50;;;1.10;;
61391;SDS011;47261;52.892;5.738;2023-08-17T07:29:24;6.78;;;1.30;;
61391;SDS011;47261;52.892;5.738;2023-08-17T07:31:49;8.53;;;2.10;;
61391;SDS011;47261;52.892;5.738;2023-08-17T07:34:15;4.72;;;1.38;;
61391;SDS011;47261;52.892;5.738;2023-08-17T07:36:41;5.73;;;1.50;;
61391;SDS011;47261;52.892;5.738;2023-08-17T07:39:06;4.32;;;1.20;;
61391;SDS011;47261;52.892;5.738;2023-08-17T07:41:32;6.93;;;1.30;;
61391;SDS011;47261;52.892;5.738;2023-08-17T07:43:58;6.50;;;1.63;;
61391;SDS011;47261;52.892;5.738;2023-08-17T07:46:23;6.80;;;1.60;;
61391;SDS011;47261;52.892;5.738;2023-08-17T07:48:49;7.63;;;1.33;;
61391;SDS011;47261;52.892;5.738;2023-08-17T07:51:18;5.63;;;1.30;;
61391;SDS011;47261;52.892;5.738;2023-08-17T07:53:43;8.20;;;1.15;;
61391;SDS011;47261;52.892;5.738;2023-08-17T07:56:09;6.53;;;1.30;;
61391;SDS011;47261;52.892;5.738;2023-08-17T07:58:35;6.80;;;1.40;;
61391;SDS011;47261;52.892;5.738;2023-08-17T08:01:00;5.60;;;1.23;;
61391;SDS011;47261;52.892;5.738;2023-08-17T08:03:26;7.20;;;1.48;;
61391;SDS011;47261;52.892;5.738;2023-08-17T08:05:52;6.27;;;1.30;;
61391;SDS011;47261;52.892;5.738;2023-08-17T08:08:17;7.38;;;1.30;;
61391;SDS011;47261;52.892;5.738;2023-08-17T08:10:45;9.15;;;1.77;;
61391;SDS011;47261;52.892;5.738;2023-08-17T08:13:10;6.93;;;1.47;;
61391;SDS011;47261;52.892;5.738;2023-08-17T08:15:36;8.23;;;1.65;;
61391;SDS011;47261;52.892;5.738;2023-08-17T08:18:02;4.47;;;1.50;;
61391;SDS011;47261;52.892;5.738;2023-08-17T08:20:28;6.55;;;1.58;;
61391;SDS011;47261;52.892;5.738;2023-08-17T08:22:54;3.72;;;1.00;;
61391;SDS011;47261;52.892;5.738;2023-08-17T08:25:19;4.23;;;1.40;;
61391;SDS011;47261;52.892;5.738;2023-08-17T08:27:45;6.90;;;1.50;;
61391;SDS011;47261;52.892;5.738;2023-08-17T08:30:11;7.43;;;1.30;;
61391;SDS011;47261;52.892;5.738;2023-08-17T08:32:36;5.35;;;1.13;;
61391;SDS011;47261;52.892;5.738;2023-08-17T08:35:02;5.10;;;1.10;;
61391;SDS011;47261;52.892;5.738;2023-08-17T08:37:28;5.35;;;1.50;;
61391;SDS011;47261;52.892;5.738;2023-08-17T08:39:54;5.07;;;1.20;;
61391;SDS011;47261;52.892;5.738;2023-08-17T08:42:21;6.53;;;1.33;;
61391;SDS011;47261;52.892;5.738;2023-08-17T08:44:47;7.20;;;1.48;;
61391;SDS011;47261;52.892;5.738;2023-08-17T08:47:14;6.70;;;1.30;;
61391;SDS011;47261;52.892;5.738;2023-08-17T08:50:01;6.80;;;1.50;;
61391;SDS011;47261;52.892;5.738;2023-08-17T08:52:44;6.18;;;1.30;;
61391;SDS011;47261;52.892;5.738;2023-08-17T08:55:18;4.57;;;1.27;;
61391;SDS011;47261;52.892;5.738;2023-08-17T08:57:46;4.38;;;1.45;;
61391;SDS011;47261;52.892;5.738;2023-08-17T09:00:14;5.53;;;1.45;;
61391;SDS011;47261;52.892;5.738;2023-08-17T09:02:41;5.67;;;1.33;;
61391;SDS011;47261;52.892;5.738;2023-08-17T09:05:08;8.02;;;1.70;;
61391;SDS011;47261;52.892;5.738;2023-08-17T09:07:35;5.95;;;1.30;;
61391;SDS011;47261;52.892;5.738;2023-08-17T09:10:02;5.10;;;1.15;;
61391;SDS011;47261;52.892;5.738;2023-08-17T09:12:29;4.75;;;1.20;;
61391;SDS011;47261;52.892;5.738;2023-08-17T09:14:55;5.47;;;1.23;;
61391;SDS011;47261;52.892;5.738;2023-08-17T09:17:24;8.30;;;1.30;;
61391;SDS011;47261;52.892;5.738;2023-08-17T09:19:53;6.82;;;1.13;;
61391;SDS011;47261;52.892;5.738;2023-08-17T09:22:37;4.90;;;1.20;;
61391;SDS011;47261;52.892;5.738;2023-08-17T09:25:07;4.88;;;1.05;;
61391;SDS011;47261;52.892;5.738;2023-08-17T09:27:35;6.10;;;1.07;;
61391;SDS011;47261;52.892;5.738;2023-08-17T09:30:07;4.13;;;1.20;;
61391;SDS011;47261;52.892;5.738;2023-08-17T09:32:34;7.43;;;1.35;;
61391;SDS011;47261;52.892;5.738;2023-08-17T09:35:00;7.53;;;1.40;;
61391;SDS011;47261;52.892;5.738;2023-08-17T09:37:30;6.33;;;1.20;;
61391;SDS011;47261;52.892;5.738;2023-08-17T09:39:57;5.55;;;1.10;;
61391;SDS011;47261;52.892;5.738;2023-08-17T09:42:22;9.27;;;1.50;;
61391;SDS011;47261;52.892;5.738;2023-08-17T09:44:50;7.13;;;1.20;;
61391;SDS011;47261;52.892;5.738;2023-08-17T09:47:16;5.37;;;1.10;;
61391;SDS011;47261;52.892;5.738;2023-08-17T09:49:50;4.65;;;1.13;;
61391;SDS011;47261;52.892;5.738;2023-08-17T09:52:18;6.30;;;1.75;;
61391;SDS011;47261;52.892;5.738;2023-08-17T09:54:45;7.25;;;1.00;;
61391;SDS011;47261;52.892;5.738;2023-08-17T09:57:12;4.45;;;1.40;;
61391;SDS011;47261;52.892;5.738;2023-08-17T09:59:39;6.50;;;0.90;;
61391;SDS011;47261;52.892;5.738;2023-08-17T10:02:06;3.20;;;0.90;;
61391;SDS011;47261;52.892;5.738;2023-08-17T10:04:51;3.75;;;0.90;;
61391;SDS011;47261;52.892;5.738;2023-08-17T10:07:18;5.60;;;1.23;;
61391;SDS011;47261;52.892;5.738;2023-08-17T10:09:46;10.23;;;1.27;;
61391;SDS011;47261;52.892;5.738;2023-08-17T10:12:18;4.73;;;1.03;;
61391;SDS011;47261;52.892;5.738;2023-08-17T10:14:53;6.45;;;0.90;;
61391;SDS011;47261;52.892;5.738;2023-08-17T10:17:27;8.68;;;1.45;;
61391;SDS011;47261;52.892;5.738;2023-08-17T10:19:59;8.07;;;1.13;;
61391;SDS011;47261;52.892;5.738;2023-08-17T10:22:47;5.85;;;1.13;;
61391;SDS011;47261;52.892;5.738;2023-08-17T10:25:26;3.20;;;1.00;;
61391;SDS011;47261;52.892;5.738;2023-08-17T10:27:53;8.50;;;1.38;;
61391;SDS011;47261;52.892;5.738;2023-08-17T10:30:19;4.82;;;1.50;;
61391;SDS011;47261;52.892;5.738;2023-08-17T10:32:45;12.30;;;1.80;;
61391;SDS011;47261;52.892;5.738;2023-08-17T10:35:11;7.00;;;1.40;;
61391;SDS011;47261;52.892;5.738;2023-08-17T10:37:38;4.95;;;1.50;;
61391;SDS011;47261;52.892;5.738;2023-08-17T10:40:06;4.43;;;1.25;;
61391;SDS011;47261;52.892;5.738;2023-08-17T10:42:33;7.10;;;1.40;;
61391;SDS011;47261;52.892;5.738;2023-08-17T10:45:01;3.55;;;0.98;;
61391;SDS011;47261;52.892;5.738;2023-08-17T10:47:45;5.63;;;1.20;;
61391;SDS011;47261;52.892;5.738;2023-08-17T10:50:21;8.35;;;1.45;;
61391;SDS011;47261;52.892;5.738;2023-08-17T10:52:48;4.43;;;1.20;;
61391;SDS011;47261;52.892;5.738;2023-08-17T10:55:15;5.67;;;1.13;;
61391;SDS011;47261;52.892;5.738;2023-08-17T10:57:44;5.60;;;1.52;;
61391;SDS011;47261;52.892;5.738;2023-08-17T11:08:07;5.97;;;1.37;;
61391;SDS011;47261;52.892;5.738;2023-08-17T11:10:34;4.43;;;1.08;;
61391;SDS011;47261;52.892;5.738;2023-08-17T11:13:01;4.30;;;1.00;;
61391;SDS011;47261;52.892;5.738;2023-08-17T11:18:09;5.90;;;1.20;;
61391;SDS011;47261;52.892;5.738;2023-08-17T11:20:35;6.83;;;1.27;;
61391;SDS011;47261;52.892;5.738;2023-08-17T11:23:03;5.18;;;1.13;;
61391;SDS011;47261;52.892;5.738;2023-08-17T11:25:29;7.20;;;1.30;;
61391;SDS011;47261;52.892;5.738;2023-08-17T11:27:57;7.13;;;1.40;;
61391;SDS011;47261;52.892;5.738;2023-08-17T11:30:24;5.72;;;1.48;;
61391;SDS011;47261;52.892;5.738;2023-08-17T11:32:53;6.07;;;1.30;;
61391;SDS011;47261;52.892;5.738;2023-08-17T11:35:19;5.60;;;1.30;;
61391;SDS011;47261;52.892;5.738;2023-08-17T11:37:46;8.02;;;1.35;;
61391;SDS011;47261;52.892;5.738;2023-08-17T11:40:13;6.15;;;1.30;;
61391;SDS011;47261;52.892;5.738;2023-08-17T11:42:40;6.45;;;1.95;;
61391;SDS011;47261;52.892;5.738;2023-08-17T11:45:07;11.17;;;1.57;;
61391;SDS011;47261;52.892;5.738;2023-08-17T11:47:38;9.68;;;1.30;;
61391;SDS011;47261;52.892;5.738;2023-08-17T11:50:09;6.93;;;1.23;;
61391;SDS011;47261;52.892;5.738;2023-08-17T11:52:35;8.05;;;1.95;;
61391;SDS011;47261;52.892;5.738;2023-08-17T11:55:02;8.25;;;1.42;;
61391;SDS011;47261;52.892;5.738;2023-08-17T11:57:30;5.57;;;1.60;;
61391;SDS011;47261;52.892;5.738;2023-08-17T11:59:57;7.10;;;1.40;;
61391;SDS011;47261;52.892;5.738;2023-08-17T12:02:24;6.25;;;1.63;;
61391;SDS011;47261;52.892;5.738;2023-08-17T12:04:50;8.20;;;1.60;;
61391;SDS011;47261;52.892;5.738;2023-08-17T12:07:17;5.30;;;1.75;;
61391;SDS011;47261;52.892;5.738;2023-08-17T12:09:43;5.77;;;1.60;;
61391;SDS011;47261;52.892;5.738;2023-08-17T12:12:10;5.93;;;1.35;;
61391;SDS011;47261;52.892;5.738;2023-08-17T12:14:36;5.78;;;1.20;;
61391;SDS011;47261;52.892;5.738;2023-08-17T12:17:02;6.00;;;1.25;;
61391;SDS011;47261;52.892;5.738;2023-08-17T12:19:29;9.97;;;1.57;;
61391;SDS011;47261;52.892;5.738;2023-08-17T12:21:55;6.80;;;1.50;;
61391;SDS011;47261;52.892;5.738;2023-08-17T12:24:25;5.47;;;1.10;;
61391;SDS011;47261;52.892;5.738;2023-08-17T12:26:51;5.00;;;1.30;;
61391;SDS011;47261;52.892;5.738;2023-08-17T12:29:17;5.13;;;1.20;;
61391;SDS011;47261;52.892;5.738;2023-08-17T12:31:42;7.85;;;1.52;;
61391;SDS011;47261;52.892;5.738;2023-08-17T12:34:09;7.13;;;1.30;;
61391;SDS011;47261;52.892;5.738;2023-08-17T12:36:35;8.73;;;1.40;;
61391;SDS011;47261;52.892;5.738;2023-08-17T12:39:02;7.22;;;1.40;;
61391;SDS011;47261;52.892;5.738;2023-08-17T12:41:29;6.32;;;1.60;;
61391;SDS011;47261;52.892;5.738;2023-08-17T12:43:54;6.67;;;1.50;;
61391;SDS011;47261;52.892;5.738;2023-08-17T12:46:23;7.45;;;1.60;;
61391;SDS011;47261;52.892;5.738;2023-08-17T12:48:49;4.18;;;1.38;;
61391;SDS011;47261;52.892;5.738;2023-08-17T12:51:15;5.57;;;1.57;;
61391;SDS011;47261;52.892;5.738;2023-08-17T12:53:41;7.22;;;2.05;;
61391;SDS011;47261;52.892;5.738;2023-08-17T12:56:07;8.00;;;1.60;;
61391;SDS011;47261;52.892;5.738;2023-08-17T12:58:33;8.83;;;1.70;;
61391;SDS011;47261;52.892;5.738;2023-08-17T13:00:59;5.10;;;1.27;;
61391;SDS011;47261;52.892;5.738;2023-08-17T13:03:25;8.00;;;1.40;;
61391;SDS011;47261;52.892;5.738;2023-08-17T13:05:51;7.05;;;1.90;;
61391;SDS011;47261;52.892;5.738;2023-08-17T13:08:16;5.78;;;1.83;;
61391;SDS011;47261;52.892;5.738;2023-08-17T13:10:42;7.77;;;1.90;;
61391;SDS011;47261;52.892;5.738;2023-08-17T13:13:07;4.57;;;1.67;;
61391;SDS011;47261;52.892;5.738;2023-08-17T13:15:33;7.68;;;1.95;;
61391;SDS011;47261;52.892;5.738;2023-08-17T13:17:59;5.80;;;1.43;;
61391;SDS011;47261;52.892;5.738;2023-08-17T13:20:25;8.18;;;1.50;;
61391;SDS011;47261;52.892;5.738;2023-08-17T13:22:50;11.07;;;1.45;;
61391;SDS011;47261;52.892;5.738;2023-08-17T13:25:16;10.27;;;1.70;;
61391;SDS011;47261;52.892;5.738;2023-08-17T13:27:42;6.70;;;1.55;;
61391;SDS011;47261;52.892;5.738;2023-08-17T13:30:08;8.70;;;1.83;;
61391;SDS011;47261;52.892;5.738;2023-08-17T13:32:34;9.52;;;1.90;;
61391;SDS011;47261;52.892;5.738;2023-08-17T13:35:01;8.40;;;2.10;;
61391;SDS011;47261;52.892;5.738;2023-08-17T13:37:27;8.60;;;1.77;;
61391;SDS011;47261;52.892;5.738;2023-08-17T13:39:53;8.03;;;1.80;;
61391;SDS011;47261;52.892;5.738;2023-08-17T13:42:19;7.30;;;2.50;;
61391;SDS011;47261;52.892;5.738;2023-08-17T13:44:45;7.28;;;1.63;;
61391;SDS011;47261;52.892;5.738;2023-08-17T13:47:11;8.10;;;2.10;;
61391;SDS011;47261;52.892;5.738;2023-08-17T13:49:37;8.05;;;2.05;;
61391;SDS011;47261;52.892;5.738;2023-08-17T13:52:03;5.25;;;1.88;;
61391;SDS011;47261;52.892;5.738;2023-08-17T13:54:29;10.27;;;2.67;;
61391;SDS011;47261;52.892;5.738;2023-08-17T13:56:54;6.28;;;2.00;;
61391;SDS011;47261;52.892;5.738;2023-08-17T13:59:20;11.20;;;2.67;;
61391;SDS011;47261;52.892;5.738;2023-08-17T14:01:46;7.80;;;1.70;;
61391;SDS011;47261;52.892;5.738;2023-08-17T14:04:12;10.07;;;2.50;;
61391;SDS011;47261;52.892;5.738;2023-08-17T14:06:39;12.37;;;2.33;;
61391;SDS011;47261;52.892;5.738;2023-08-17T14:09:05;13.13;;;2.25;;
61391;SDS011;47261;52.892;5.738;2023-08-17T14:11:31;12.10;;;2.50;;
61391;SDS011;47261;52.892;5.738;2023-08-17T14:13:56;7.23;;;2.40;;
61391;SDS011;47261;52.892;5.738;2023-08-17T14:16:22;10.98;;;2.83;;
61391;SDS011;47261;52.892;5.738;2023-08-17T14:18:48;6.83;;;2.60;;
61391;SDS011;47261;52.892;5.738;2023-08-17T14:21:13;9.80;;;2.72;;
61391;SDS011;47261;52.892;5.738;2023-08-17T14:23:39;13.40;;;3.07;;
61391;SDS011;47261;52.892;5.738;2023-08-17T14:26:05;7.15;;;2.92;;
61391;SDS011;47261;52.892;5.738;2023-08-17T14:28:31;9.27;;;2.93;;
61391;SDS011;47261;52.892;5.738;2023-08-17T14:30:56;9.43;;;2.95;;
61391;SDS011;47261;52.892;5.738;2023-08-17T14:33:22;8.50;;;2.27;;
61391;SDS011;47261;52.892;5.738;2023-08-17T14:35:48;8.57;;;3.00;;
61391;SDS011;47261;52.892;5.738;2023-08-17T14:38:14;8.97;;;3.00;;
61391;SDS011;47261;52.892;5.738;2023-08-17T14:40:44;7.40;;;2.85;;
61391;SDS011;47261;52.892;5.738;2023-08-17T14:43:11;9.00;;;2.63;;
61391;SDS011;47261;52.892;5.738;2023-08-17T14:45:39;13.68;;;2.72;;
61391;SDS011;47261;52.892;5.738;2023-08-17T14:48:06;9.38;;;2.60;;
61391;SDS011;47261;52.892;5.738;2023-08-17T14:50:32;10.20;;;2.77;;
61391;SDS011;47261;52.892;5.738;2023-08-17T14:52:59;8.40;;;3.13;;
61391;SDS011;47261;52.892;5.738;2023-08-17T14:55:27;8.40;;;2.42;;